createdAt,value
2023-02-18T00:01:14.207Z,-12.49
2023-02-18T00:03:42.741Z,-12.56
2023-02-18T00:06:25.185Z,-12.57
2023-02-18T00:08:53.377Z,-12.61
2023-02-18T00:11:21.929Z,-12.65
2023-02-18T00:14:01.133Z,-12.69
2023-02-18T00:16:29.309Z,-12.74
2023-02-18T00:18:58.322Z,-12.91
2023-02-18T00:21:26.418Z,-12.90
2023-02-18T00:23:54.553Z,-12.92
2023-02-18T00:26:22.786Z,-12.97
2023-02-18T00:28:52.038Z,-12.97
2023-02-18T00:31:32.430Z,-13.00
2023-02-18T00:34:02.629Z,-13.07
2023-02-18T00:36:30.653Z,-13.11
2023-02-18T00:39:00.902Z,-13.13
2023-02-18T00:41:29.158Z,-13.15
2023-02-18T00:43:58.360Z,-13.18
2023-02-18T00:46:26.540Z,-13.21
2023-02-18T00:48:55.331Z,-13.24
2023-02-18T00:51:23.552Z,-13.27
2023-02-18T00:53:51.968Z,-13.35
2023-02-18T00:56:20.071Z,-13.43
2023-02-18T00:58:48.273Z,-13.55
2023-02-18T01:01:16.281Z,-13.66
2023-02-18T01:03:44.935Z,-13.70
2023-02-18T01:06:13.321Z,-13.71
2023-02-18T01:08:41.137Z,-13.71
2023-02-18T01:11:09.849Z,-13.69
2023-02-18T01:13:37.958Z,-13.67
2023-02-18T01:16:07.988Z,-13.65
2023-02-18T01:18:36.524Z,-13.62
2023-02-18T01:21:08.980Z,-13.58
2023-02-18T01:23:41.130Z,-13.54
2023-02-18T01:26:10.120Z,-13.53
2023-02-18T01:28:39.473Z,-13.55
2023-02-18T01:31:09.034Z,-13.56
2023-02-18T01:33:37.130Z,-13.46
2023-02-18T01:36:06.242Z,-13.33
2023-02-18T01:38:34.629Z,-13.09
2023-02-18T01:41:02.610Z,-12.89
2023-02-18T01:43:30.751Z,-12.64
2023-02-18T01:46:07.013Z,-12.26
2023-02-18T01:48:49.283Z,-11.73
2023-02-18T01:51:23.254Z,-11.41
2023-02-18T01:53:58.223Z,-11.22
2023-02-18T01:56:54.417Z,-11.12
2023-02-18T01:59:28.886Z,-11.24
2023-02-18T02:01:56.823Z,-11.49
2023-02-18T02:04:25.089Z,-11.59
2023-02-18T02:06:53.031Z,-11.61
2023-02-18T02:09:25.399Z,-11.70
2023-02-18T02:12:08.219Z,-11.76
2023-02-18T02:14:54.399Z,-11.78
2023-02-18T02:17:59.650Z,-11.90
2023-02-18T02:20:52.395Z,-11.85
2023-02-18T02:23:53.831Z,-11.91
2023-02-18T02:26:45.979Z,-12.04
2023-02-18T02:29:16.649Z,-12.16
2023-02-18T02:32:02.324Z,-12.13
2023-02-18T02:34:35.412Z,-12.00
2023-02-18T02:37:26.175Z,-11.94
2023-02-18T02:40:13.272Z,-11.66
2023-02-18T02:43:05.842Z,-11.27
2023-02-18T02:45:56.192Z,-10.92
2023-02-18T02:48:47.616Z,-10.73
2023-02-18T02:51:47.102Z,-10.39
2023-02-18T02:54:24.217Z,-9.94
2023-02-18T02:57:10.407Z,-9.32
2023-02-18T02:59:48.816Z,-8.79
2023-02-18T03:02:38.421Z,-8.38
2023-02-18T03:05:45.854Z,-8.00
2023-02-18T03:08:16.340Z,-7.60
2023-02-18T03:10:58.047Z,-7.26
2023-02-18T03:13:34.959Z,-7.00
2023-02-18T03:16:36.306Z,-6.72
2023-02-18T03:19:33.751Z,-6.36
2023-02-18T03:22:09.311Z,-6.16
2023-02-18T03:24:44.725Z,-6.01
2023-02-18T03:27:27.972Z,-5.88
2023-02-18T03:30:03.113Z,-5.64
2023-02-18T03:32:31.197Z,-5.47
2023-02-18T03:35:04.588Z,-5.32
2023-02-18T03:37:33.793Z,-5.18
2023-02-18T03:40:01.517Z,-5.08
2023-02-18T03:42:29.874Z,-5.05
2023-02-18T03:44:57.886Z,-4.99
2023-02-18T03:47:26.302Z,-4.95
2023-02-18T03:49:53.992Z,-4.76
2023-02-18T03:52:21.807Z,-4.62
2023-02-18T03:54:51.931Z,-4.64
2023-02-18T03:57:19.700Z,-4.62
2023-02-18T03:59:47.762Z,-4.46
2023-02-18T04:02:15.843Z,-4.31
2023-02-18T04:04:43.878Z,-4.44
2023-02-18T04:07:11.982Z,-4.52
2023-02-18T04:09:40.168Z,-4.47
2023-02-18T04:12:08.113Z,-4.44
2023-02-18T04:14:36.089Z,-4.37
2023-02-18T04:17:04.180Z,-4.20
2023-02-18T04:19:32.339Z,-4.02
2023-02-18T04:22:00.468Z,-4.02
2023-02-18T04:24:28.450Z,-4.16
2023-02-18T04:26:56.497Z,-4.17
2023-02-18T04:29:24.609Z,-4.05
2023-02-18T04:31:52.814Z,-3.89
2023-02-18T04:34:20.650Z,-3.87
2023-02-18T04:36:48.435Z,-3.90
2023-02-18T04:39:16.312Z,-3.98
2023-02-18T04:41:44.577Z,-4.25
2023-02-18T04:44:12.958Z,-4.50
2023-02-18T04:46:40.998Z,-4.64
2023-02-18T04:49:09.064Z,-4.82
2023-02-18T04:51:38.340Z,-4.99
2023-02-18T04:54:06.113Z,-5.15
2023-02-18T04:56:34.124Z,-5.25
2023-02-18T04:59:01.829Z,-5.36
2023-02-18T05:01:29.665Z,-5.34
2023-02-18T05:03:57.701Z,-5.31
2023-02-18T05:06:25.792Z,-5.29
2023-02-18T05:08:53.851Z,-5.09
2023-02-18T05:11:21.918Z,-4.82
2023-02-18T05:13:50.021Z,-4.62
2023-02-18T05:16:18.103Z,-4.46
2023-02-18T05:18:46.072Z,-4.37
2023-02-18T05:21:14.084Z,-4.22
2023-02-18T05:23:41.852Z,-4.16
2023-02-18T05:26:10.261Z,-4.13
2023-02-18T05:28:38.308Z,-4.27
2023-02-18T05:31:06.389Z,-4.39
2023-02-18T05:33:34.316Z,-4.54
2023-02-18T05:36:02.378Z,-4.70
2023-02-18T05:38:30.104Z,-4.72
2023-02-18T05:40:58.237Z,-4.73
2023-02-18T05:43:26.200Z,-4.71
2023-02-18T05:45:54.218Z,-4.70
2023-02-18T05:48:22.154Z,-4.69
2023-02-18T05:50:54.545Z,-4.69
2023-02-18T05:53:22.552Z,-4.57
2023-02-18T05:55:50.407Z,-4.56
2023-02-18T05:58:18.603Z,-4.60
2023-02-18T06:00:46.442Z,-4.57
2023-02-18T06:03:14.566Z,-4.58
2023-02-18T06:05:42.293Z,-4.57
2023-02-18T06:08:10.057Z,-4.37
2023-02-18T06:10:38.482Z,-4.24
2023-02-18T06:13:06.793Z,-4.23
2023-02-18T06:15:34.894Z,-4.26
2023-02-18T06:18:02.902Z,-4.22
2023-02-18T06:20:31.203Z,-4.14
2023-02-18T06:22:59.286Z,-4.05
2023-02-18T06:25:27.419Z,-3.98
2023-02-18T06:27:55.495Z,-3.91
2023-02-18T06:30:25.078Z,-3.87
2023-02-18T06:32:52.728Z,-4.01
2023-02-18T06:35:20.518Z,-4.21
2023-02-18T06:37:48.521Z,-4.35
2023-02-18T06:40:16.751Z,-4.49
2023-02-18T06:42:44.921Z,-4.56
2023-02-18T06:45:12.962Z,-4.63
2023-02-18T06:47:41.062Z,-4.74
2023-02-18T06:50:09.299Z,-4.80
2023-02-18T06:52:38.816Z,-4.91
2023-02-18T06:55:07.447Z,-5.01
2023-02-18T06:57:35.540Z,-5.12
2023-02-18T07:00:05.747Z,-5.18
2023-02-18T07:02:34.567Z,-5.22
2023-02-18T07:05:02.373Z,-5.17
2023-02-18T07:07:30.373Z,-5.12
2023-02-18T07:09:58.785Z,-5.13
2023-02-18T07:12:26.622Z,-5.09
2023-02-18T07:14:54.578Z,-5.01
2023-02-18T07:17:22.517Z,-4.93
2023-02-18T07:19:50.299Z,-4.74
2023-02-18T07:22:18.454Z,-4.52
2023-02-18T07:24:46.433Z,-4.46
2023-02-18T07:27:14.241Z,-4.32
2023-02-18T07:29:42.227Z,-4.10
2023-02-18T07:32:12.733Z,-3.90
2023-02-18T07:34:40.939Z,-3.71
2023-02-18T07:37:10.283Z,-3.66
2023-02-18T07:39:40.829Z,-3.59
2023-02-18T07:42:09.677Z,-3.45
2023-02-18T07:44:38.413Z,-3.33
2023-02-18T07:47:06.628Z,-3.25
2023-02-18T07:49:34.328Z,-3.24
2023-02-18T07:52:04.454Z,-3.24
2023-02-18T07:54:32.545Z,-3.27
2023-02-18T07:57:00.685Z,-3.38
2023-02-18T07:59:28.784Z,-3.53
2023-02-18T08:01:56.953Z,-3.69
2023-02-18T08:04:25.115Z,-3.79
2023-02-18T08:06:53.107Z,-3.89
2023-02-18T08:09:21.230Z,-4.01
2023-02-18T08:11:49.119Z,-4.12
2023-02-18T08:14:17.426Z,-4.19
2023-02-18T08:16:48.413Z,-4.24
2023-02-18T08:19:17.068Z,-4.29
2023-02-18T08:21:48.224Z,-4.27
2023-02-18T08:24:16.660Z,-4.31
2023-02-18T08:26:59.513Z,-4.35
2023-02-18T08:29:28.771Z,-4.30
2023-02-18T08:31:58.537Z,-4.32
2023-02-18T08:34:26.972Z,-4.35
2023-02-18T08:36:55.230Z,-4.44
2023-02-18T08:39:23.759Z,-4.46
2023-02-18T08:41:51.754Z,-4.49
2023-02-18T08:44:19.468Z,-4.55
2023-02-18T08:46:48.931Z,-4.60
2023-02-18T08:49:17.429Z,-4.59
2023-02-18T08:51:45.236Z,-4.54
2023-02-18T08:54:13.397Z,-4.49
2023-02-18T08:56:42.351Z,-4.43
2023-02-18T08:59:10.598Z,-4.30
2023-02-18T09:01:38.441Z,-4.17
2023-02-18T09:04:06.608Z,-4.12
2023-02-18T09:06:38.189Z,-4.15
2023-02-18T09:09:06.755Z,-4.13
2023-02-18T09:11:34.601Z,-4.17
2023-02-18T09:14:03.632Z,-4.23
2023-02-18T09:16:32.895Z,-4.27
2023-02-18T09:19:01.336Z,-4.28
2023-02-18T09:21:29.189Z,-4.42
2023-02-18T09:23:57.558Z,-4.36
2023-02-18T09:26:26.950Z,-4.41
2023-02-18T09:28:55.650Z,-4.47
2023-02-18T09:31:24.989Z,-4.54
2023-02-18T09:33:55.826Z,-4.59
2023-02-18T09:36:23.905Z,-4.66
2023-02-18T09:38:52.326Z,-4.72
2023-02-18T09:41:35.776Z,-4.78
2023-02-18T09:44:12.169Z,-4.85
2023-02-18T09:46:41.529Z,-4.94
2023-02-18T09:49:15.994Z,-4.99
2023-02-18T09:51:44.541Z,-5.08
2023-02-18T09:54:13.178Z,-5.26
2023-02-18T09:56:41.658Z,-5.34
2023-02-18T09:59:14.320Z,-5.39
2023-02-18T10:01:42.276Z,-5.43
2023-02-18T10:04:26.101Z,-5.46
2023-02-18T10:06:54.746Z,-5.52
2023-02-18T10:09:33.635Z,-5.57
2023-02-18T10:12:20.458Z,-5.58
2023-02-18T10:14:56.111Z,-5.62
2023-02-18T10:17:25.304Z,-5.62
2023-02-18T10:19:54.287Z,-5.63
2023-02-18T10:22:23.318Z,-5.73
2023-02-18T10:25:05.552Z,-5.87
2023-02-18T10:27:35.544Z,-5.98
2023-02-18T10:30:22.622Z,-6.10
2023-02-18T10:32:54.904Z,-6.18
2023-02-18T10:35:34.772Z,-6.24
2023-02-18T10:38:06.119Z,-6.31
2023-02-18T10:40:39.737Z,-6.34
2023-02-18T10:43:10.853Z,-6.38
2023-02-18T10:45:59.279Z,-6.39
2023-02-18T10:48:56.053Z,-6.41
2023-02-18T10:51:30.000Z,-6.40
2023-02-18T10:53:58.270Z,-6.41
2023-02-18T10:56:44.055Z,-6.41
2023-02-18T10:59:13.496Z,-6.45
2023-02-18T11:01:42.236Z,-6.48
2023-02-18T11:04:20.969Z,-6.53
2023-02-18T11:06:49.857Z,-6.60
2023-02-18T11:09:36.434Z,-6.66
2023-02-18T11:12:08.741Z,-6.74
2023-02-18T11:14:48.311Z,-6.79
2023-02-18T11:17:19.357Z,-6.86
2023-02-18T11:19:55.653Z,-6.91
2023-02-18T11:22:26.234Z,-6.97
2023-02-18T11:24:58.945Z,-7.01
2023-02-18T11:27:42.835Z,-7.04
2023-02-18T11:30:21.210Z,-7.08
2023-02-18T11:32:50.204Z,-7.12
2023-02-18T11:35:23.478Z,-7.16
2023-02-18T11:37:51.605Z,-7.22
2023-02-18T11:40:33.241Z,-7.27
2023-02-18T11:43:21.603Z,-7.32
2023-02-18T11:45:49.539Z,-7.35
2023-02-18T11:48:19.415Z,-7.38
2023-02-18T11:50:47.110Z,-7.44
2023-02-18T11:53:35.527Z,-7.43
2023-02-18T11:56:06.399Z,-7.49
2023-02-18T11:58:42.536Z,-7.53
2023-02-18T12:01:21.383Z,-7.59
2023-02-18T12:04:01.155Z,-7.66
2023-02-18T12:06:32.818Z,-7.73
2023-02-18T12:09:13.244Z,-7.78
2023-02-18T12:11:43.113Z,-7.85
2023-02-18T12:14:17.857Z,-7.90
2023-02-18T12:17:04.258Z,-7.95
2023-02-18T12:19:54.408Z,-8.00
2023-02-18T12:22:24.176Z,-8.04
2023-02-18T12:25:04.915Z,-8.07
2023-02-18T12:27:44.034Z,-8.13
2023-02-18T12:30:21.060Z,-8.17
2023-02-18T12:32:54.569Z,-8.23
2023-02-18T12:35:50.300Z,-8.29
2023-02-18T12:38:51.981Z,-8.36
2023-02-18T12:41:30.907Z,-8.36
2023-02-18T12:44:26.474Z,-8.41
2023-02-18T12:47:16.462Z,-8.44
2023-02-18T12:50:31.310Z,-8.53
2023-02-18T12:53:27.909Z,-8.61
2023-02-18T12:56:08.719Z,-8.66
2023-02-18T12:59:00.494Z,-8.73
2023-02-18T13:01:45.504Z,-8.80
2023-02-18T13:04:18.158Z,-8.82
2023-02-18T13:07:27.984Z,-8.89
2023-02-18T13:10:28.423Z,-8.94
2023-02-18T13:13:08.706Z,-9.02
2023-02-18T13:15:54.215Z,-9.05
2023-02-18T13:18:35.204Z,-9.14
2023-02-18T13:21:10.598Z,-9.20
2023-02-18T13:23:54.327Z,-9.19
2023-02-18T13:26:22.433Z,-9.23
2023-02-18T13:29:05.603Z,-9.25
2023-02-18T13:32:08.295Z,-9.33
2023-02-18T13:34:58.596Z,-9.42
2023-02-18T13:37:44.476Z,-9.43
2023-02-18T13:40:28.161Z,-9.46
2023-02-18T13:42:59.137Z,-9.52
2023-02-18T13:45:29.722Z,-9.60
2023-02-18T13:47:58.795Z,-9.61
2023-02-18T13:50:32.011Z,-9.64
2023-02-18T13:53:09.136Z,-9.69
2023-02-18T13:55:41.510Z,-9.74
2023-02-18T13:58:19.194Z,-9.82
2023-02-18T14:01:13.398Z,-9.84
2023-02-18T14:03:44.283Z,-9.85
2023-02-18T14:06:23.332Z,-9.87
2023-02-18T14:08:51.484Z,-9.89
2023-02-18T14:11:22.445Z,-9.91
2023-02-18T14:14:18.016Z,-9.95
2023-02-18T14:17:13.902Z,-9.99
2023-02-18T14:19:42.015Z,-10.04
2023-02-18T14:22:29.566Z,-10.05
2023-02-18T14:25:13.885Z,-10.08
2023-02-18T14:27:42.074Z,-10.14
2023-02-18T14:30:23.354Z,-10.12
2023-02-18T14:32:52.906Z,-10.14
2023-02-18T14:35:40.108Z,-10.15
2023-02-18T14:38:31.305Z,-10.16
2023-02-18T14:41:14.619Z,-10.17
2023-02-18T14:44:11.228Z,-10.14
2023-02-18T14:46:48.163Z,-10.15
2023-02-18T14:49:38.893Z,-10.12
2023-02-18T14:52:11.227Z,-10.12
2023-02-18T14:54:39.724Z,-10.12
2023-02-18T14:57:10.261Z,-10.18
2023-02-18T14:59:42.212Z,-10.21
2023-02-18T15:02:20.146Z,-10.22
2023-02-18T15:04:48.578Z,-10.24
2023-02-18T15:07:18.954Z,-10.23
2023-02-18T15:09:49.099Z,-10.26
2023-02-18T15:12:23.938Z,-10.28
2023-02-18T15:14:53.663Z,-10.29
2023-02-18T15:17:25.444Z,-10.35
2023-02-18T15:19:56.191Z,-10.37
2023-02-18T15:22:26.531Z,-10.44
2023-02-18T15:24:55.847Z,-10.52
2023-02-18T15:27:35.559Z,-10.55
2023-02-18T15:30:16.603Z,-10.62
2023-02-18T15:32:57.733Z,-10.71
2023-02-18T15:35:33.577Z,-10.79
2023-02-18T15:38:02.068Z,-10.94
2023-02-18T15:40:34.683Z,-11.01
2023-02-18T15:43:04.505Z,-11.07
2023-02-18T15:45:37.471Z,-11.22
2023-02-18T15:48:06.659Z,-11.28
2023-02-18T15:50:39.063Z,-11.37
2023-02-18T15:53:15.390Z,-11.51
2023-02-18T15:55:44.492Z,-11.64
2023-02-18T15:58:33.646Z,-11.77
2023-02-18T16:01:03.908Z,-11.86
2023-02-18T16:03:33.046Z,-11.92
2023-02-18T16:06:18.087Z,-11.96
2023-02-18T16:09:02.922Z,-12.01
2023-02-18T16:11:37.177Z,-12.05
2023-02-18T16:14:06.967Z,-12.06
2023-02-18T16:16:36.836Z,-12.08
2023-02-18T16:19:05.592Z,-12.12
2023-02-18T16:21:38.649Z,-12.11
2023-02-18T16:24:27.459Z,-12.09
2023-02-18T16:26:58.985Z,-12.05
2023-02-18T16:29:28.235Z,-12.02
2023-02-18T16:31:56.789Z,-11.96
2023-02-18T16:34:24.986Z,-11.94
2023-02-18T16:37:10.844Z,-11.88
2023-02-18T16:39:38.783Z,-11.87
2023-02-18T16:42:12.764Z,-11.86
2023-02-18T16:44:41.810Z,-11.83
2023-02-18T16:47:12.099Z,-11.82
2023-02-18T16:49:39.967Z,-11.84
2023-02-18T16:52:09.444Z,-11.82
2023-02-18T16:54:37.995Z,-11.85
2023-02-18T16:57:05.776Z,-11.84
2023-02-18T16:59:33.586Z,-11.86
2023-02-18T17:02:02.072Z,-11.85
2023-02-18T17:04:30.327Z,-11.83
2023-02-18T17:06:58.426Z,-11.86
2023-02-18T17:09:27.856Z,-11.88
2023-02-18T17:11:56.617Z,-11.87
2023-02-18T17:14:24.445Z,-11.85
2023-02-18T17:16:53.557Z,-11.84
2023-02-18T17:19:21.868Z,-11.83
2023-02-18T17:21:49.969Z,-11.83
2023-02-18T17:24:18.610Z,-11.83
2023-02-18T17:26:46.671Z,-11.84
2023-02-18T17:29:15.037Z,-11.85
2023-02-18T17:31:47.879Z,-11.90
2023-02-18T17:34:28.059Z,-11.90
2023-02-18T17:36:56.515Z,-11.92
2023-02-18T17:39:25.276Z,-11.95
2023-02-18T17:41:53.523Z,-11.94
2023-02-18T17:44:23.054Z,-11.88
2023-02-18T17:46:51.462Z,-11.85
2023-02-18T17:49:19.414Z,-11.83
2023-02-18T17:51:47.547Z,-11.83
2023-02-18T17:54:20.313Z,-11.81
2023-02-18T17:56:48.738Z,-11.79
2023-02-18T17:59:16.884Z,-11.76
2023-02-18T18:01:45.049Z,-11.72
2023-02-18T18:04:17.265Z,-11.70
2023-02-18T18:06:46.149Z,-11.77
2023-02-18T18:09:14.521Z,-11.78
2023-02-18T18:11:42.241Z,-11.76
2023-02-18T18:14:12.339Z,-11.79
2023-02-18T18:16:40.298Z,-11.90
2023-02-18T18:19:08.127Z,-12.00
2023-02-18T18:21:36.648Z,-12.08
2023-02-18T18:24:04.644Z,-12.14
2023-02-18T18:26:32.642Z,-12.11
2023-02-18T18:29:00.681Z,-12.07
2023-02-18T18:31:28.938Z,-12.06
2023-02-18T18:33:57.647Z,-12.03
2023-02-18T18:36:25.524Z,-11.95
2023-02-18T18:38:53.595Z,-11.87
2023-02-18T18:41:22.371Z,-11.87
2023-02-18T18:43:50.198Z,-11.85
2023-02-18T18:46:18.851Z,-11.87
2023-02-18T18:48:47.593Z,-11.83
2023-02-18T18:51:17.196Z,-11.85
2023-02-18T18:53:45.305Z,-11.91
2023-02-18T18:56:13.373Z,-11.96
2023-02-18T18:58:41.357Z,-11.97
2023-02-18T19:01:15.293Z,-12.01
2023-02-18T19:03:44.152Z,-11.99
2023-02-18T19:06:12.578Z,-11.95
2023-02-18T19:08:40.741Z,-11.97
2023-02-18T19:11:08.662Z,-11.96
2023-02-18T19:13:37.187Z,-11.97
2023-02-18T19:16:09.472Z,-11.96
2023-02-18T19:18:37.441Z,-11.94
2023-02-18T19:21:05.741Z,-11.90
2023-02-18T19:23:34.356Z,-11.86
2023-02-18T19:26:02.131Z,-11.80
2023-02-18T19:28:30.067Z,-11.76
2023-02-18T19:30:57.871Z,-11.74
2023-02-18T19:33:25.765Z,-11.65
2023-02-18T19:35:53.471Z,-11.56
2023-02-18T19:38:21.252Z,-11.53
2023-02-18T19:40:49.341Z,-11.46
2023-02-18T19:43:17.482Z,-11.37
2023-02-18T19:45:46.684Z,-11.32
2023-02-18T19:48:15.318Z,-11.29
2023-02-18T19:50:43.429Z,-11.35
2023-02-18T19:53:11.395Z,-11.38
2023-02-18T19:55:40.188Z,-11.45
2023-02-18T19:58:08.091Z,-11.45
2023-02-18T20:00:35.984Z,-11.41
2023-02-18T20:03:03.668Z,-11.39
2023-02-18T20:05:31.456Z,-11.37
2023-02-18T20:07:59.457Z,-11.37
2023-02-18T20:10:27.453Z,-11.33
2023-02-18T20:12:55.467Z,-11.31
2023-02-18T20:15:23.641Z,-11.29
2023-02-18T20:17:51.940Z,-11.28
2023-02-18T20:20:20.204Z,-11.31
2023-02-18T20:22:48.450Z,-11.35
2023-02-18T20:25:16.324Z,-11.32
2023-02-18T20:27:59.529Z,-11.25
2023-02-18T20:30:28.224Z,-11.20
2023-02-18T20:32:56.143Z,-11.17
2023-02-18T20:35:24.205Z,-11.13
2023-02-18T20:37:52.227Z,-11.08
2023-02-18T20:40:20.283Z,-10.95
2023-02-18T20:42:48.085Z,-10.85
2023-02-18T20:45:15.987Z,-10.75
2023-02-18T20:47:43.882Z,-10.66
2023-02-18T20:50:11.610Z,-10.56
2023-02-18T20:52:40.190Z,-10.48
2023-02-18T20:55:08.606Z,-10.41
2023-02-18T20:57:37.128Z,-10.32
2023-02-18T21:00:05.815Z,-10.23
2023-02-18T21:02:34.039Z,-10.12
2023-02-18T21:05:01.829Z,-10.05
2023-02-18T21:07:29.942Z,-9.94
2023-02-18T21:09:57.744Z,-9.89
2023-02-18T21:12:25.933Z,-9.86
2023-02-18T21:14:53.993Z,-9.83
2023-02-18T21:17:22.630Z,-9.80
2023-02-18T21:19:51.045Z,-9.72
2023-02-18T21:22:18.930Z,-9.67
2023-02-18T21:24:47.116Z,-9.64
2023-02-18T21:27:15.149Z,-9.60
2023-02-18T21:29:43.205Z,-9.52
2023-02-18T21:32:11.381Z,-9.55
2023-02-18T21:34:39.300Z,-9.57
2023-02-18T21:37:07.095Z,-9.61
2023-02-18T21:39:34.874Z,-9.67
2023-02-18T21:42:04.787Z,-9.72
2023-02-18T21:44:41.951Z,-9.86
2023-02-18T21:47:11.479Z,-9.87
2023-02-18T21:49:39.466Z,-9.93
2023-02-18T21:52:09.795Z,-9.99
2023-02-18T21:54:40.522Z,-10.00
2023-02-18T21:57:14.222Z,-10.04
2023-02-18T21:59:42.543Z,-10.06
2023-02-18T22:02:16.541Z,-10.11
2023-02-18T22:04:44.498Z,-10.14
2023-02-18T22:07:12.544Z,-10.18
2023-02-18T22:09:41.042Z,-10.22
2023-02-18T22:12:09.258Z,-10.25
2023-02-18T22:14:37.052Z,-10.28
2023-02-18T22:17:06.099Z,-10.29
2023-02-18T22:19:34.585Z,-10.30
2023-02-18T22:22:05.334Z,-10.36
2023-02-18T22:24:33.223Z,-10.39
2023-02-18T22:27:01.905Z,-10.33
2023-02-18T22:29:30.697Z,-10.32
2023-02-18T22:31:58.947Z,-10.30
2023-02-18T22:34:26.984Z,-10.29
2023-02-18T22:36:54.729Z,-10.29
2023-02-18T22:39:22.722Z,-10.28
2023-02-18T22:41:50.774Z,-10.29
2023-02-18T22:44:18.504Z,-10.28
2023-02-18T22:46:46.925Z,-10.27
2023-02-18T22:49:15.055Z,-10.26
2023-02-18T22:51:44.189Z,-10.28
2023-02-18T22:54:16.176Z,-10.31
2023-02-18T22:56:44.646Z,-10.36
2023-02-18T22:59:13.154Z,-10.35
2023-02-18T23:01:42.799Z,-10.35
2023-02-18T23:04:12.277Z,-10.37
2023-02-18T23:06:41.550Z,-10.38
2023-02-18T23:09:11.941Z,-10.34
2023-02-18T23:11:39.689Z,-10.33
2023-02-18T23:14:19.435Z,-10.39
2023-02-18T23:17:13.704Z,-10.33
2023-02-18T23:19:46.493Z,-10.27
2023-02-18T23:22:19.907Z,-10.24
2023-02-18T23:24:50.079Z,-10.24
2023-02-18T23:27:18.132Z,-10.18
2023-02-18T23:29:46.187Z,-10.12
2023-02-18T23:32:14.224Z,-10.08
2023-02-18T23:34:42.530Z,-10.05
2023-02-18T23:37:10.853Z,-10.06
2023-02-18T23:39:40.210Z,-10.11
2023-02-18T23:42:09.041Z,-10.23
2023-02-18T23:44:37.061Z,-10.29
2023-02-18T23:47:05.162Z,-10.34
2023-02-18T23:49:33.515Z,-10.36
2023-02-18T23:52:01.597Z,-10.32
2023-02-18T23:54:29.889Z,-10.28
2023-02-18T23:56:57.981Z,-10.18
2023-02-18T23:59:26.230Z,-10.09
